createdAt,value
2019-01-19T00:02:21.031Z,11.73
2019-01-19T00:04:51.229Z,11.62
2019-01-19T00:07:21.278Z,11.53
2019-01-19T00:09:51.507Z,11.46
2019-01-19T00:12:21.186Z,11.46
2019-01-19T00:14:51.306Z,11.42
2019-01-19T00:17:21.277Z,11.37
2019-01-19T00:19:51.713Z,11.45
2019-01-19T00:22:21.649Z,11.43
2019-01-19T00:24:51.519Z,11.37
2019-01-19T00:27:21.517Z,11.39
2019-01-19T00:29:51.702Z,11.45
2019-01-19T00:32:21.104Z,11.43
2019-01-19T00:34:50.694Z,11.40
2019-01-19T00:37:20.231Z,11.36
2019-01-19T00:39:49.639Z,11.33
2019-01-19T00:42:19.235Z,11.32
2019-01-19T00:44:49.802Z,11.27
2019-01-19T00:47:20.518Z,11.23
2019-01-19T00:49:50.587Z,11.21
2019-01-19T00:52:20.307Z,11.20
2019-01-19T00:54:50.263Z,11.22
2019-01-19T00:57:20.248Z,11.23
2019-01-19T00:59:50.124Z,11.24
2019-01-19T01:02:20.325Z,11.26
2019-01-19T01:04:50.769Z,11.29
2019-01-19T01:07:21.109Z,11.31
2019-01-19T01:09:51.149Z,11.33
2019-01-19T01:12:21.286Z,11.37
2019-01-19T01:14:51.342Z,11.47
2019-01-19T01:17:21.726Z,11.51
2019-01-19T01:19:51.994Z,11.58
2019-01-19T01:22:21.764Z,11.67
2019-01-19T01:24:51.388Z,11.74
2019-01-19T01:27:21.693Z,11.78
2019-01-19T01:29:51.804Z,11.83
2019-01-19T01:32:21.712Z,11.97
2019-01-19T01:34:51.650Z,12.03
2019-01-19T01:37:21.755Z,12.11
2019-01-19T01:39:51.885Z,12.24
2019-01-19T01:42:21.729Z,12.39
2019-01-19T01:44:51.412Z,12.49
2019-01-19T01:47:21.688Z,12.65
2019-01-19T01:49:51.931Z,12.76
2019-01-19T01:52:21.936Z,12.80
2019-01-19T01:54:52.283Z,12.93
2019-01-19T01:57:22.384Z,13.13
2019-01-19T01:59:52.731Z,13.28
2019-01-19T02:02:22.751Z,13.41
2019-01-19T02:04:52.825Z,13.53
2019-01-19T02:07:22.983Z,13.88
2019-01-19T02:09:53.116Z,14.27
2019-01-19T02:12:23.102Z,14.61
2019-01-19T02:14:53.109Z,14.93
2019-01-19T02:17:23.044Z,15.27
2019-01-19T02:19:53.106Z,15.63
2019-01-19T02:22:23.676Z,16.00
2019-01-19T02:24:53.629Z,16.39
2019-01-19T02:27:23.704Z,16.68
2019-01-19T02:29:54.034Z,16.98
2019-01-19T02:32:24.688Z,17.30
2019-01-19T02:34:55.070Z,17.52
2019-01-19T02:37:24.979Z,17.86
2019-01-19T02:39:55.701Z,18.23
2019-01-19T02:42:26.251Z,18.56
2019-01-19T02:44:56.678Z,18.77
2019-01-19T02:47:26.831Z,18.96
2019-01-19T02:49:57.030Z,19.33
2019-01-19T02:52:27.415Z,19.70
2019-01-19T02:54:57.768Z,19.94
2019-01-19T02:57:27.993Z,20.22
2019-01-19T02:59:58.586Z,20.42
2019-01-19T03:02:28.562Z,20.79
2019-01-19T03:04:58.692Z,20.92
2019-01-19T03:07:28.831Z,20.97
2019-01-19T03:09:59.553Z,20.98
2019-01-19T03:12:30.040Z,21.11
2019-01-19T03:15:00.274Z,21.31
2019-01-19T03:17:30.267Z,21.57
2019-01-19T03:20:00.432Z,21.75
2019-01-19T03:22:30.561Z,21.82
2019-01-19T03:25:00.543Z,22.04
2019-01-19T03:27:30.677Z,22.35
2019-01-19T03:30:01.604Z,22.43
2019-01-19T03:32:31.432Z,22.76
2019-01-19T03:35:02.280Z,22.84
2019-01-19T03:37:32.903Z,23.07
2019-01-19T03:40:02.667Z,23.23
2019-01-19T03:42:32.755Z,23.20
2019-01-19T03:45:03.138Z,23.32
2019-01-19T03:47:33.843Z,23.20
2019-01-19T03:50:03.775Z,23.24
2019-01-19T03:52:33.416Z,23.13
2019-01-19T03:55:03.562Z,23.35
2019-01-19T03:57:33.423Z,23.64
2019-01-19T04:00:03.658Z,23.74
2019-01-19T04:02:33.731Z,23.93
2019-01-19T04:05:03.726Z,23.88
2019-01-19T04:07:33.792Z,24.07
2019-01-19T04:10:03.509Z,24.08
2019-01-19T04:12:33.666Z,24.07
2019-01-19T04:15:03.220Z,24.16
2019-01-19T04:17:33.563Z,24.17
2019-01-19T04:20:03.474Z,24.21
2019-01-19T04:22:33.095Z,24.18
2019-01-19T04:25:03.698Z,24.27
2019-01-19T04:27:34.150Z,24.32
2019-01-19T04:30:04.249Z,24.23
2019-01-19T04:32:34.435Z,24.49
2019-01-19T04:35:04.746Z,24.68
2019-01-19T04:37:34.740Z,24.78
2019-01-19T04:40:04.317Z,24.89
2019-01-19T04:42:34.262Z,25.01
2019-01-19T04:45:04.339Z,24.96
2019-01-19T04:47:34.490Z,25.24
2019-01-19T04:50:04.619Z,25.20
2019-01-19T04:52:34.639Z,25.21
2019-01-19T04:55:04.766Z,25.30
2019-01-19T04:57:34.749Z,25.37
2019-01-19T05:04:05.001Z,25.35
2019-01-19T05:06:35.543Z,25.37
2019-01-19T05:09:05.639Z,25.36
2019-01-19T05:11:35.603Z,25.48
2019-01-19T05:14:06.216Z,25.59
2019-01-19T05:16:36.199Z,25.85
2019-01-19T05:19:06.212Z,25.89
2019-01-19T05:21:36.241Z,26.00
2019-01-19T05:24:06.172Z,26.09
2019-01-19T05:26:36.114Z,26.05
2019-01-19T05:29:06.583Z,26.13
2019-01-19T05:31:36.343Z,26.13
2019-01-19T05:34:06.558Z,25.80
2019-01-19T05:36:38.550Z,26.01
2019-01-19T05:39:07.227Z,26.15
2019-01-19T05:41:37.443Z,26.35
2019-01-19T05:44:07.724Z,26.38
2019-01-19T05:46:38.429Z,26.27
2019-01-19T05:49:08.564Z,26.60
2019-01-19T05:51:38.565Z,26.51
2019-01-19T05:54:08.670Z,26.62
2019-01-19T05:56:38.434Z,26.69
2019-01-19T05:59:08.841Z,26.71
2019-01-19T06:01:39.280Z,26.96
2019-01-19T06:04:09.298Z,26.85
2019-01-19T06:06:46.562Z,26.87
2019-01-19T06:09:10.824Z,27.18
2019-01-19T06:11:41.194Z,27.25
2019-01-19T06:16:54.629Z,27.22
2019-01-19T06:19:24.873Z,27.17
2019-01-19T06:21:55.238Z,27.11
2019-01-19T06:24:25.086Z,27.01
2019-01-19T06:26:55.400Z,26.93
2019-01-19T06:29:25.425Z,27.20
2019-01-19T06:31:55.862Z,27.08
2019-01-19T06:34:25.669Z,27.21
2019-01-19T06:36:55.871Z,27.49
2019-01-19T06:39:26.403Z,27.49
2019-01-19T06:41:56.805Z,26.99
2019-01-19T06:44:27.078Z,27.30
2019-01-19T06:46:57.619Z,27.35
2019-01-19T06:49:28.134Z,27.21
2019-01-19T06:51:58.403Z,27.26
2019-01-19T06:54:28.825Z,27.53
2019-01-19T06:56:58.786Z,27.65
2019-01-19T06:59:29.116Z,27.66
2019-01-19T07:01:59.352Z,27.73
2019-01-19T07:04:29.440Z,27.73
2019-01-19T07:07:02.810Z,27.71
2019-01-19T07:09:30.275Z,27.83
2019-01-19T07:12:00.623Z,27.74
2019-01-19T07:14:30.755Z,27.66
2019-01-19T07:17:00.875Z,27.48
2019-01-19T07:19:30.985Z,27.55
2019-01-19T07:22:01.135Z,27.55
2019-01-19T07:24:31.434Z,27.46
2019-01-19T07:27:01.465Z,27.65
2019-01-19T07:29:31.545Z,27.66
2019-01-19T07:32:01.671Z,27.87
2019-01-19T07:34:31.803Z,28.02
2019-01-19T07:37:02.145Z,28.18
2019-01-19T07:39:32.185Z,28.22
2019-01-19T07:42:02.273Z,28.24
2019-01-19T07:44:32.649Z,28.51
2019-01-19T07:47:02.811Z,28.41
2019-01-19T07:49:32.970Z,28.22
2019-01-19T07:52:03.204Z,28.32
2019-01-19T07:54:33.364Z,28.57
2019-01-19T07:57:02.991Z,28.23
2019-01-19T07:59:32.802Z,28.28
2019-01-19T08:02:02.912Z,28.32
2019-01-19T08:04:33.284Z,28.50
2019-01-19T08:07:03.458Z,28.20
2019-01-19T08:09:33.593Z,27.97
2019-01-19T08:12:03.845Z,28.20
2019-01-19T08:14:33.668Z,28.31
2019-01-19T08:17:03.992Z,27.90
2019-01-19T08:19:34.452Z,28.09
2019-01-19T08:22:04.579Z,28.20
2019-01-19T08:24:34.266Z,28.30
2019-01-19T08:27:04.654Z,28.04
2019-01-19T08:29:34.535Z,28.12
2019-01-19T08:32:04.842Z,27.96
2019-01-19T08:34:35.081Z,27.92
2019-01-19T08:37:05.702Z,27.85
2019-01-19T08:39:35.490Z,27.70
2019-01-19T08:42:05.735Z,27.70
2019-01-19T08:44:35.861Z,27.62
2019-01-19T08:47:05.877Z,27.83
2019-01-19T08:49:36.332Z,28.11
2019-01-19T08:52:08.951Z,28.11
2019-01-19T08:54:39.690Z,28.09
2019-01-19T08:57:10.140Z,28.25
2019-01-19T08:59:40.196Z,28.34
2019-01-19T09:02:10.260Z,28.11
2019-01-19T09:04:40.409Z,28.16
2019-01-19T09:07:10.417Z,27.97
2019-01-19T09:09:40.626Z,28.04
2019-01-19T09:12:11.124Z,27.64
2019-01-19T09:14:41.955Z,27.56
2019-01-19T09:17:12.326Z,27.73
2019-01-19T09:19:42.242Z,27.83
2019-01-19T09:22:12.835Z,27.80
2019-01-19T09:24:42.913Z,27.79
2019-01-19T09:27:13.113Z,27.67
2019-01-19T09:29:43.405Z,27.68
2019-01-19T09:32:13.844Z,27.54
2019-01-19T09:34:43.874Z,27.48
2019-01-19T09:37:13.930Z,27.58
2019-01-19T09:39:44.109Z,27.52
2019-01-19T09:42:14.442Z,27.29
2019-01-19T09:44:44.853Z,27.14
2019-01-19T09:47:14.917Z,27.29
2019-01-19T09:49:45.013Z,27.27
2019-01-19T09:52:20.986Z,27.29
2019-01-19T09:54:46.396Z,27.33
2019-01-19T09:57:16.800Z,27.31
2019-01-19T09:59:47.019Z,27.40
2019-01-19T10:02:17.606Z,27.41
2019-01-19T10:04:48.003Z,27.55
2019-01-19T10:07:18.421Z,27.62
2019-01-19T10:09:48.304Z,27.53
2019-01-19T10:12:18.436Z,27.44
2019-01-19T10:14:48.429Z,27.25
2019-01-19T10:17:18.701Z,27.24
2019-01-19T10:19:48.371Z,27.19
2019-01-19T10:22:18.329Z,27.10
2019-01-19T10:24:48.363Z,27.02
2019-01-19T10:27:18.323Z,26.73
2019-01-19T10:29:48.003Z,26.56
2019-01-19T10:32:18.044Z,26.37
2019-01-19T10:34:48.473Z,26.30
2019-01-19T10:37:19.014Z,26.33
2019-01-19T10:39:49.134Z,26.37
2019-01-19T10:42:18.937Z,26.44
2019-01-19T10:44:49.051Z,26.42
2019-01-19T10:47:19.229Z,26.28
2019-01-19T10:49:49.456Z,25.98
2019-01-19T10:52:19.607Z,25.74
2019-01-19T10:54:49.617Z,25.49
2019-01-19T10:57:20.003Z,25.25
2019-01-19T10:59:50.106Z,25.01
2019-01-19T11:02:20.196Z,24.78
2019-01-19T11:04:50.563Z,24.55
2019-01-19T11:07:20.396Z,24.33
2019-01-19T11:09:50.243Z,24.19
2019-01-19T11:12:20.492Z,24.03
2019-01-19T11:14:50.603Z,23.73
2019-01-19T11:17:20.771Z,23.55
2019-01-19T11:19:50.766Z,23.23
2019-01-19T11:22:20.977Z,23.04
2019-01-19T11:24:51.241Z,22.89
2019-01-19T11:27:21.152Z,22.69
2019-01-19T11:29:51.417Z,22.48
2019-01-19T11:32:21.551Z,22.29
2019-01-19T11:34:51.562Z,22.07
2019-01-19T11:37:21.959Z,21.90
2019-01-19T11:39:52.114Z,21.77
2019-01-19T11:42:22.028Z,21.63
2019-01-19T11:44:52.232Z,21.47
2019-01-19T11:47:22.289Z,21.27
2019-01-19T11:49:52.286Z,21.07
2019-01-19T11:52:22.138Z,20.81
2019-01-19T11:54:52.102Z,20.54
2019-01-19T11:57:22.309Z,20.33
2019-01-19T11:59:52.384Z,20.17
2019-01-19T12:02:22.357Z,20.01
2019-01-19T12:04:52.432Z,19.86
2019-01-19T12:07:22.303Z,19.75
2019-01-19T12:09:54.297Z,19.67
2019-01-19T12:12:24.363Z,19.55
2019-01-19T12:14:54.789Z,19.40
2019-01-19T12:17:24.910Z,19.28
2019-01-19T12:19:54.945Z,19.18
2019-01-19T12:22:25.051Z,19.11
2019-01-19T12:24:54.660Z,19.00
2019-01-19T12:27:24.848Z,18.81
2019-01-19T12:29:55.001Z,18.73
2019-01-19T12:32:25.010Z,18.63
2019-01-19T12:34:54.952Z,18.52
2019-01-19T12:37:25.173Z,18.39
2019-01-19T12:39:55.071Z,18.30
2019-01-19T12:42:25.409Z,18.19
2019-01-19T12:44:55.125Z,17.99
2019-01-19T12:47:25.171Z,17.90
2019-01-19T12:49:54.844Z,17.67
2019-01-19T12:52:25.013Z,17.61
2019-01-19T12:54:55.486Z,17.62
2019-01-19T12:57:25.613Z,17.58
2019-01-19T12:59:55.393Z,17.53
2019-01-19T13:02:25.320Z,17.46
2019-01-19T13:04:54.964Z,17.34
2019-01-19T13:07:25.114Z,17.36
2019-01-19T13:09:54.773Z,17.27
2019-01-19T13:12:24.581Z,17.26
2019-01-19T13:14:54.803Z,17.21
2019-01-19T13:17:25.169Z,17.16
2019-01-19T13:19:55.236Z,17.09
2019-01-19T13:22:25.326Z,17.02
2019-01-19T13:24:55.487Z,16.98
2019-01-19T13:27:25.595Z,16.94
2019-01-19T13:29:55.895Z,16.81
2019-01-19T13:32:25.888Z,16.70
2019-01-19T13:34:56.029Z,16.59
2019-01-19T13:37:26.188Z,16.53
2019-01-19T13:39:56.228Z,16.40
2019-01-19T13:42:26.328Z,16.32
2019-01-19T13:44:56.384Z,16.26
2019-01-19T13:47:26.485Z,16.20
2019-01-19T13:49:56.849Z,16.18
2019-01-19T13:52:27.265Z,16.22
2019-01-19T13:54:57.420Z,16.27
2019-01-19T13:57:28.071Z,16.16
2019-01-19T13:59:58.220Z,16.10
2019-01-19T14:02:28.103Z,16.03
2019-01-19T14:04:58.609Z,15.93
2019-01-19T14:07:28.627Z,15.90
2019-01-19T14:09:58.713Z,15.85
2019-01-19T14:12:28.544Z,15.75
2019-01-19T14:14:58.981Z,15.70
2019-01-19T14:17:28.890Z,15.70
2019-01-19T14:19:59.426Z,15.67
2019-01-19T14:22:29.681Z,15.63
2019-01-19T14:24:59.580Z,15.59
2019-01-19T14:27:29.685Z,15.57
2019-01-19T14:30:00.820Z,15.53
2019-01-19T14:32:30.950Z,15.47
2019-01-19T14:35:00.754Z,15.47
2019-01-19T14:37:31.061Z,15.41
2019-01-19T14:40:00.951Z,15.34
2019-01-19T14:42:30.737Z,15.26
2019-01-19T14:45:00.874Z,15.20
2019-01-19T14:47:30.954Z,15.14
2019-01-19T14:50:00.949Z,15.01
2019-01-19T14:52:30.867Z,14.98
2019-01-19T14:55:01.162Z,14.98
2019-01-19T14:57:30.909Z,14.97
2019-01-19T15:00:01.106Z,14.99
2019-01-19T15:02:31.450Z,14.92
2019-01-19T15:05:01.587Z,14.88
2019-01-19T15:07:31.558Z,14.87
2019-01-19T15:10:01.527Z,14.83
2019-01-19T15:12:31.450Z,14.77
2019-01-19T15:15:01.593Z,14.70
2019-01-19T15:17:31.882Z,14.64
2019-01-19T15:20:01.610Z,14.62
2019-01-19T15:22:31.475Z,14.58
2019-01-19T15:25:01.497Z,14.60
2019-01-19T15:27:31.627Z,14.57
2019-01-19T15:30:01.432Z,14.53
2019-01-19T15:32:31.863Z,14.48
2019-01-19T15:35:01.489Z,14.45
2019-01-19T15:37:31.275Z,14.39
2019-01-19T15:40:01.692Z,14.34
2019-01-19T15:42:31.730Z,14.32
2019-01-19T15:45:01.849Z,14.31
2019-01-19T15:47:32.270Z,14.29
2019-01-19T15:50:02.033Z,14.28
2019-01-19T15:52:32.048Z,14.29
2019-01-19T15:55:01.969Z,14.23
2019-01-19T15:57:32.215Z,14.14
2019-01-19T16:00:02.168Z,14.11
2019-01-19T16:02:32.168Z,14.12
2019-01-19T16:05:02.261Z,14.07
2019-01-19T16:07:32.501Z,14.13
2019-01-19T16:10:02.540Z,14.20
2019-01-19T16:12:33.053Z,14.27
2019-01-19T16:15:02.602Z,14.28
2019-01-19T16:17:32.884Z,14.24
2019-01-19T16:20:03.238Z,14.16
2019-01-19T16:22:32.797Z,14.07
2019-01-19T16:25:03.172Z,14.02
2019-01-19T16:27:33.748Z,14.18
2019-01-19T16:30:03.615Z,14.24
2019-01-19T16:32:33.344Z,13.99
2019-01-19T16:35:03.487Z,13.92
2019-01-19T16:37:33.741Z,13.91
2019-01-19T16:40:03.319Z,13.81
2019-01-19T16:42:32.999Z,13.75
2019-01-19T16:45:03.107Z,13.84
2019-01-19T16:47:33.183Z,13.71
2019-01-19T16:50:03.223Z,13.64
2019-01-19T16:52:33.093Z,13.57
2019-01-19T16:55:02.900Z,13.56
2019-01-19T16:57:32.960Z,13.62
2019-01-19T17:00:03.074Z,13.70
2019-01-19T17:02:33.210Z,13.70
2019-01-19T17:05:03.477Z,13.73
2019-01-19T17:07:33.510Z,13.71
2019-01-19T17:10:03.155Z,13.68
2019-01-19T17:12:33.332Z,13.57
2019-01-19T17:15:03.428Z,13.55
2019-01-19T17:17:33.157Z,13.51
2019-01-19T17:20:03.164Z,13.49
2019-01-19T17:22:33.315Z,13.48
2019-01-19T17:25:03.555Z,13.51
2019-01-19T17:27:33.494Z,13.50
2019-01-19T17:30:03.393Z,13.44
2019-01-19T17:32:33.375Z,13.40
2019-01-19T17:35:03.411Z,13.29
2019-01-19T17:37:33.507Z,13.09
2019-01-19T17:40:03.520Z,12.98
2019-01-19T17:42:33.517Z,12.99
2019-01-19T17:45:03.974Z,12.80
2019-01-19T17:47:34.041Z,12.75
2019-01-19T17:50:04.103Z,12.79
2019-01-19T17:52:34.330Z,12.81
2019-01-19T17:55:04.354Z,12.80
2019-01-19T17:57:34.473Z,12.72
2019-01-19T18:00:04.096Z,12.71
2019-01-19T18:02:34.081Z,12.76
2019-01-19T18:05:04.719Z,12.83
2019-01-19T18:07:35.282Z,12.84
2019-01-19T18:10:04.951Z,12.84
2019-01-19T18:12:35.301Z,12.83
2019-01-19T18:15:05.318Z,12.85
2019-01-19T18:17:35.002Z,12.86
2019-01-19T18:20:05.481Z,12.85
2019-01-19T18:22:35.241Z,12.85
2019-01-19T18:25:05.368Z,12.84
2019-01-19T18:27:35.402Z,12.90
2019-01-19T18:30:04.946Z,12.90
2019-01-19T18:32:34.955Z,12.89
2019-01-19T18:35:04.912Z,12.84
2019-01-19T18:37:35.389Z,12.70
2019-01-19T18:40:05.254Z,12.67
2019-01-19T18:42:35.255Z,12.68
2019-01-19T18:45:05.322Z,12.61
2019-01-19T18:47:34.999Z,12.75
2019-01-19T18:50:05.010Z,12.86
2019-01-19T18:52:34.972Z,12.83
2019-01-19T18:55:04.750Z,12.59
2019-01-19T18:57:34.544Z,12.52
2019-01-19T19:00:04.557Z,12.45
2019-01-19T19:02:34.645Z,12.43
2019-01-19T19:05:04.516Z,12.43
2019-01-19T19:07:34.720Z,12.37
2019-01-19T19:10:04.359Z,12.38
2019-01-19T19:12:34.658Z,12.39
2019-01-19T19:15:04.475Z,12.36
2019-01-19T19:17:35.208Z,12.37
2019-01-19T19:20:05.115Z,12.42
2019-01-19T19:22:34.921Z,12.49
2019-01-19T19:25:04.740Z,12.55
2019-01-19T19:27:34.862Z,12.48
2019-01-19T19:30:05.324Z,12.50
2019-01-19T19:32:35.578Z,12.50
2019-01-19T19:35:06.313Z,12.52
2019-01-19T19:37:35.855Z,12.61
2019-01-19T19:40:09.750Z,12.60
2019-01-19T19:42:36.890Z,12.63
2019-01-19T19:45:06.920Z,12.62
2019-01-19T19:47:37.007Z,12.57
2019-01-19T19:50:06.789Z,12.55
2019-01-19T19:52:36.879Z,12.49
2019-01-19T19:55:07.248Z,12.47
2019-01-19T19:57:36.882Z,12.55
2019-01-19T20:00:06.720Z,12.48
2019-01-19T20:02:36.863Z,12.56
2019-01-19T20:05:06.617Z,12.60
2019-01-19T20:07:37.003Z,12.49
2019-01-19T20:10:07.133Z,12.43
2019-01-19T20:12:37.164Z,12.40
2019-01-19T20:15:06.922Z,12.37
2019-01-19T20:17:36.836Z,12.38
2019-01-19T20:20:06.833Z,12.37
2019-01-19T20:22:36.518Z,12.42
2019-01-19T20:25:06.614Z,12.43
2019-01-19T20:27:36.677Z,12.39
2019-01-19T20:30:06.454Z,12.38
2019-01-19T20:32:36.355Z,12.36
2019-01-19T20:35:06.344Z,12.34
2019-01-19T20:37:36.340Z,12.26
2019-01-19T20:40:06.358Z,12.21
2019-01-19T20:42:36.541Z,12.17
2019-01-19T20:45:06.390Z,12.18
2019-01-19T20:47:36.723Z,12.20
2019-01-19T20:50:06.538Z,12.20
2019-01-19T20:52:36.547Z,12.21
2019-01-19T20:55:06.793Z,12.27
2019-01-19T20:57:37.020Z,12.24
2019-01-19T21:00:06.822Z,12.20
2019-01-19T21:02:37.179Z,12.21
2019-01-19T21:05:07.343Z,12.19
2019-01-19T21:07:37.577Z,12.17
2019-01-19T21:10:07.593Z,12.07
2019-01-19T21:12:37.823Z,12.23
2019-01-19T21:15:07.951Z,12.26
2019-01-19T21:17:37.969Z,12.19
2019-01-19T21:20:07.534Z,12.17
2019-01-19T21:22:38.112Z,12.20
2019-01-19T21:25:08.312Z,12.15
2019-01-19T21:27:38.598Z,12.08
2019-01-19T21:30:09.024Z,12.05
2019-01-19T21:32:39.108Z,12.02
2019-01-19T21:35:09.080Z,11.91
2019-01-19T21:37:38.838Z,11.92
2019-01-19T21:40:09.006Z,11.96
2019-01-19T21:42:38.919Z,12.00
2019-01-19T21:45:08.954Z,12.03
2019-01-19T21:47:39.247Z,12.05
2019-01-19T21:50:09.663Z,12.05
2019-01-19T21:52:39.701Z,12.04
2019-01-19T21:55:09.638Z,12.07
2019-01-19T21:57:39.943Z,12.11
2019-01-19T22:00:10.088Z,12.11
2019-01-19T22:02:40.703Z,12.09
2019-01-19T22:05:10.820Z,12.06
2019-01-19T22:07:40.844Z,12.03
2019-01-19T22:10:10.850Z,12.06
2019-01-19T22:12:41.001Z,12.10
2019-01-19T22:15:11.093Z,12.13
2019-01-19T22:17:41.402Z,12.16
2019-01-19T22:20:11.647Z,12.04
2019-01-19T22:22:41.771Z,11.98
2019-01-19T22:25:11.645Z,11.92
2019-01-19T22:27:41.370Z,11.90
2019-01-19T22:30:11.314Z,11.85
2019-01-19T22:32:41.428Z,11.84
2019-01-19T22:35:11.831Z,11.82
2019-01-19T22:37:42.136Z,11.81
2019-01-19T22:40:11.976Z,11.79
2019-01-19T22:42:41.876Z,11.76
2019-01-19T22:45:12.009Z,11.76
2019-01-19T22:47:42.167Z,11.76
2019-01-19T22:50:12.326Z,11.79
2019-01-19T22:52:42.358Z,11.79
2019-01-19T22:55:12.473Z,11.75
2019-01-19T22:57:42.621Z,11.73
2019-01-19T23:00:12.918Z,11.74
2019-01-19T23:02:43.066Z,11.74
2019-01-19T23:05:13.648Z,11.77
2019-01-19T23:07:44.049Z,11.78
2019-01-19T23:10:13.926Z,11.80
2019-01-19T23:12:44.017Z,11.80
2019-01-19T23:15:13.919Z,11.83
2019-01-19T23:17:44.180Z,11.78
2019-01-19T23:20:14.230Z,11.78
2019-01-19T23:22:44.528Z,11.78
2019-01-19T23:25:14.212Z,11.77
2019-01-19T23:27:44.461Z,11.77
2019-01-19T23:30:14.252Z,11.77
2019-01-19T23:32:44.577Z,11.76
2019-01-19T23:35:14.508Z,11.77
2019-01-19T23:37:44.803Z,11.76
2019-01-19T23:40:14.772Z,11.77
2019-01-19T23:42:47.381Z,11.76
2019-01-19T23:45:15.563Z,11.74
2019-01-19T23:47:45.693Z,11.78
2019-01-19T23:50:15.565Z,11.82
2019-01-19T23:52:45.842Z,11.81
2019-01-19T23:55:16.004Z,11.80
2019-01-19T23:57:46.400Z,11.76
